Time;durP1;ratioP1;P1;durP2;ratioP2;P2;SDS_P1;SDS_P2;PMS_P1;PMS_P2;Temp;Humidity;BMP_temperature;BMP_pressure;BME280_temperature;BME280_humidity;BME280_pressure;Samples;Min_cycle;Max_cycle;Signal;HPM_P1;HPM_P2
2022/07/08 00:00:25;;;;;;;1.60;0.30;;;17.00;75.00;;;;;;5064398;28;20081;-61
2022/07/08 00:02:50;;;;;;;2.28;0.50;;;16.90;75.00;;;;;;5068938;28;20086;-60
2022/07/08 00:05:16;;;;;;;1.00;0.30;;;16.90;75.00;;;;;;5067080;28;20457;-61
2022/07/08 00:07:41;;;;;;;4.20;0.60;;;16.90;75.20;;;;;;5067340;28;20052;-61
2022/07/08 00:10:07;;;;;;;3.55;0.50;;;16.90;75.40;;;;;;5063950;28;20035;-60
2022/07/08 00:12:33;;;;;;;2.17;0.50;;;16.90;75.40;;;;;;5068424;28;20447;-61
2022/07/08 00:14:58;;;;;;;4.45;0.60;;;16.90;76.30;;;;;;5066714;28;20036;-60
2022/07/08 00:17:24;;;;;;;5.97;0.50;;;16.90;75.70;;;;;;5065564;28;20385;-61
2022/07/08 00:19:50;;;;;;;3.72;0.73;;;16.80;75.80;;;;;;5066215;28;20484;-61
2022/07/08 00:22:15;;;;;;;4.45;0.60;;;16.80;75.90;;;;;;5065633;28;20030;-60
2022/07/08 00:24:41;;;;;;;3.92;0.45;;;16.80;76.10;;;;;;5067909;28;20029;-61
2022/07/08 00:27:06;;;;;;;3.05;0.50;;;16.70;76.20;;;;;;5066810;28;20028;-61
2022/07/08 00:29:31;;;;;;;3.00;0.80;;;16.70;76.30;;;;;;5066367;28;20353;-61
2022/07/08 00:31:57;;;;;;;3.97;0.43;;;16.70;76.40;;;;;;5068539;28;20086;-61
2022/07/08 00:34:23;;;;;;;4.43;1.17;;;16.70;76.60;;;;;;5067462;28;20025;-61
2022/07/08 00:36:48;;;;;;;2.22;0.50;;;16.70;76.80;;;;;;5065019;28;20078;-61
2022/07/08 00:39:14;;;;;;;2.95;0.40;;;16.60;76.80;;;;;;5065990;28;20054;-61
2022/07/08 00:41:39;;;;;;;3.25;0.95;;;16.60;77.00;;;;;;5067273;28;20020;-61
2022/07/08 00:44:05;;;;;;;2.22;0.50;;;16.60;77.20;;;;;;5067311;28;20056;-61
2022/07/08 00:46:31;;;;;;;3.03;0.45;;;16.60;77.40;;;;;;5068022;28;20032;-61
2022/07/08 00:48:57;;;;;;;2.05;0.57;;;16.50;77.50;;;;;;5067212;28;20039;-61
2022/07/08 00:51:24;;;;;;;4.25;0.60;;;16.50;77.70;;;;;;5066579;28;20180;-61
2022/07/08 00:53:53;;;;;;;3.72;0.40;;;16.50;77.90;;;;;;5066805;28;20385;-61
2022/07/08 00:56:22;;;;;;;;;;;16.50;78.00;;;;;;5067718;28;20095;-61
2022/07/08 00:58:48;;;;;;;1.60;0.43;;;16.40;77.90;;;;;;5064081;28;20527;-61
2022/07/08 01:01:15;;;;;;;1.90;0.30;;;16.30;78.30;;;;;;5063131;28;20121;-61
2022/07/08 01:03:43;;;;;;;3.08;0.60;;;16.30;78.30;;;;;;5067233;28;20423;-61
2022/07/08 01:06:08;;;;;;;2.33;0.50;;;16.30;78.40;;;;;;5066599;28;20021;-60
2022/07/08 01:08:34;;;;;;;3.05;0.40;;;16.30;78.60;;;;;;5070282;28;20044;-61
2022/07/08 01:10:59;;;;;;;2.35;0.40;;;16.20;78.60;;;;;;5079486;28;20036;-61
2022/07/08 01:13:25;;;;;;;3.38;0.70;;;16.10;78.70;;;;;;5069647;28;20111;-61
2022/07/08 01:15:51;;;;;;;5.03;0.50;;;16.10;79.00;;;;;;5066807;28;20442;-61
2022/07/08 01:18:21;;;;;;;3.40;0.40;;;16.10;79.20;;;;;;5065250;28;20071;-61
2022/07/08 01:20:46;;;;;;;2.53;0.40;;;16.10;79.40;;;;;;5068032;28;20035;-61
2022/07/08 01:23:12;;;;;;;1.90;0.52;;;16.00;79.60;;;;;;5065616;28;20016;-61
2022/07/08 01:25:38;;;;;;;2.55;0.32;;;15.90;79.90;;;;;;5066142;28;20032;-60
2022/07/08 01:28:04;;;;;;;3.13;0.40;;;15.80;80.10;;;;;;5066860;28;20025;-61
2022/07/08 01:30:29;;;;;;;6.18;0.70;;;15.80;80.40;;;;;;5065658;28;20107;-61
2022/07/08 01:32:54;;;;;;;2.08;0.40;;;15.80;80.60;;;;;;5065390;28;20074;-60
2022/07/08 01:35:20;;;;;;;2.28;0.50;;;15.70;80.60;;;;;;5067396;28;20067;-61
2022/07/08 01:37:46;;;;;;;2.97;0.45;;;15.60;80.60;;;;;;5065421;28;20039;-61
2022/07/08 01:40:11;;;;;;;3.35;0.40;;;15.60;80.70;;;;;;5080962;28;20043;-60
2022/07/08 01:42:37;;;;;;;3.15;0.82;;;15.60;80.80;;;;;;5066410;28;20025;-60
2022/07/08 01:45:03;;;;;;;2.10;0.40;;;15.60;80.80;;;;;;5067029;28;20025;-61
2022/07/08 01:47:28;;;;;;;4.40;0.50;;;15.60;80.80;;;;;;5068515;28;20029;-61
2022/07/08 01:49:54;;;;;;;1.98;0.50;;;15.50;80.90;;;;;;5068839;28;20058;-60
2022/07/08 01:52:19;;;;;;;0.88;0.22;;;15.50;81.00;;;;;;5087433;28;20024;-60
2022/07/08 01:54:45;;;;;;;2.15;0.40;;;15.50;81.10;;;;;;5083296;28;20017;-61
2022/07/08 01:57:13;;;;;;;3.75;1.05;;;15.40;81.10;;;;;;5069855;28;20491;-61
2022/07/08 01:59:39;;;;;;;1.88;0.50;;;15.40;81.40;;;;;;5068087;28;20041;-60
2022/07/08 02:02:05;;;;;;;1.85;0.60;;;15.40;81.40;;;;;;5069194;28;20025;-60
2022/07/08 02:04:30;;;;;;;2.28;0.50;;;15.30;81.40;;;;;;5068311;28;20500;-60
2022/07/08 02:06:56;;;;;;;1.05;0.30;;;15.30;81.60;;;;;;5069904;28;20507;-61
2022/07/08 02:09:22;;;;;;;1.27;0.40;;;15.30;81.70;;;;;;5069631;28;20024;-61
2022/07/08 02:14:34;;;;;;;4.03;0.52;;;15.20;81.90;;;;;;5070716;28;20408;-60
2022/07/08 02:17:00;;;;;;;3.25;0.40;;;15.20;82.00;;;;;;5069635;28;20519;-60
2022/07/08 02:19:25;;;;;;;2.88;0.55;;;15.20;82.20;;;;;;5066156;28;20100;-60
2022/07/08 02:21:51;;;;;;;3.88;0.40;;;15.10;82.30;;;;;;5069877;28;20033;-60
2022/07/08 02:24:16;;;;;;;2.58;0.63;;;15.10;82.40;;;;;;5068506;28;20028;-60
2022/07/08 02:26:42;;;;;;;3.28;0.43;;;15.10;82.50;;;;;;5069246;28;20020;-60
2022/07/08 02:29:08;;;;;;;2.55;0.50;;;15.10;82.60;;;;;;5067590;28;20544;-60
2022/07/08 02:31:34;;;;;;;4.25;0.57;;;15.10;82.70;;;;;;5067464;28;20028;-60
2022/07/08 02:34:00;;;;;;;2.03;0.50;;;15.10;82.70;;;;;;5068689;28;20043;-60
2022/07/08 02:36:41;;;;;;;;;;;;;;;;;;;;;
2022/07/08 02:39:06;;;;;;;4.10;0.50;;;15.10;83.00;;;;;;5068729;28;20032;-61
2022/07/08 02:41:32;;;;;;;1.50;0.40;;;15.00;83.20;;;;;;5069285;28;20028;-60
2022/07/08 02:43:58;;;;;;;1.30;0.38;;;15.00;83.30;;;;;;5068498;28;20561;-60
2022/07/08 02:46:23;;;;;;;3.38;0.45;;;15.00;83.50;;;;;;5068226;28;20016;-60
2022/07/08 02:48:49;;;;;;;5.82;0.40;;;15.00;83.50;;;;;;5068001;28;20365;-61
2022/07/08 02:51:14;;;;;;;2.97;0.50;;;14.90;83.60;;;;;;5070513;28;20028;-61
2022/07/08 02:53:40;;;;;;;2.67;0.85;;;14.90;83.70;;;;;;5066480;28;20104;-61
2022/07/08 02:56:06;;;;;;;2.65;0.50;;;14.90;83.80;;;;;;5067944;28;20476;-60
2022/07/08 02:58:31;;;;;;;3.05;0.40;;;14.90;84.00;;;;;;5066865;28;20463;-60
2022/07/08 03:01:00;;;;;;;3.15;0.50;;;14.80;84.10;;;;;;5069763;28;20056;-60
2022/07/08 03:03:26;;;;;;;1.48;0.52;;;14.80;84.20;;;;;;5066923;28;20088;-60
2022/07/08 03:05:51;;;;;;;2.63;0.60;;;14.80;84.30;;;;;;5067500;28;20078;-61
2022/07/08 03:08:16;;;;;;;2.38;0.38;;;14.80;84.60;;;;;;5068858;28;20062;-61
2022/07/08 03:10:42;;;;;;;2.25;0.50;;;14.80;84.80;;;;;;5068933;28;20459;-60
2022/07/08 03:13:07;;;;;;;2.38;0.40;;;14.70;85.10;;;;;;5068281;28;20499;-61
2022/07/08 03:15:33;;;;;;;2.38;0.50;;;14.70;85.40;;;;;;5067114;28;20111;-61
2022/07/08 03:17:59;;;;;;;2.58;0.60;;;14.70;85.60;;;;;;5069374;28;20035;-60
2022/07/08 03:20:28;;;;;;;3.75;0.70;;;14.70;85.80;;;;;;5068179;28;20047;-60
2022/07/08 03:22:53;;;;;;;2.80;0.60;;;14.70;86.00;;;;;;5068043;28;20071;-61
2022/07/08 03:25:19;;;;;;;3.55;0.50;;;14.60;86.50;;;;;;5068099;28;20040;-60
2022/07/08 03:27:44;;;;;;;3.47;0.50;;;14.50;86.80;;;;;;5067311;28;20021;-60
2022/07/08 03:30:10;;;;;;;2.80;0.60;;;14.50;87.20;;;;;;5068157;28;20115;-60
2022/07/08 03:32:35;;;;;;;2.58;0.40;;;14.40;87.40;;;;;;5067575;28;20024;-60
2022/07/08 03:35:01;;;;;;;1.50;0.50;;;14.40;87.70;;;;;;5067650;28;20033;-60
2022/07/08 03:37:26;;;;;;;1.90;0.40;;;14.40;88.10;;;;;;5066871;28;20379;-61
2022/07/08 03:39:53;;;;;;;1.85;0.47;;;14.30;88.30;;;;;;5068695;28;20460;-61
2022/07/08 03:42:19;;;;;;;1.33;0.50;;;14.30;88.50;;;;;;5067868;28;20062;-60
2022/07/08 03:44:45;;;;;;;3.05;0.82;;;14.30;88.60;;;;;;5067551;28;20020;-61
2022/07/08 03:47:11;;;;;;;3.05;0.60;;;14.30;88.80;;;;;;5066618;28;20052;-60
2022/07/08 03:49:37;;;;;;;2.70;0.50;;;14.30;89.10;;;;;;5068657;28;20063;-61
2022/07/08 03:52:02;;;;;;;2.35;0.50;;;14.20;89.30;;;;;;5066585;28;20119;-60
2022/07/08 03:54:28;;;;;;;1.25;0.50;;;14.20;89.60;;;;;;5067113;28;20017;-60
2022/07/08 03:56:54;;;;;;;3.10;0.60;;;14.20;89.80;;;;;;5067488;28;20074;-60
2022/07/08 03:59:19;;;;;;;2.90;0.55;;;14.20;89.90;;;;;;5068940;28;20165;-60
2022/07/08 04:01:45;;;;;;;2.05;0.63;;;14.20;90.00;;;;;;5066069;28;20028;-61
2022/07/08 04:04:10;;;;;;;2.45;0.60;;;14.20;90.00;;;;;;5066095;28;20020;-60
2022/07/08 04:06:36;;;;;;;4.95;0.80;;;14.20;89.80;;;;;;5050741;28;20028;-60
2022/07/08 04:09:03;;;;;;;3.13;0.52;;;14.30;89.70;;;;;;5067931;28;20025;-60
2022/07/08 04:11:28;;;;;;;2.92;0.60;;;14.30;89.60;;;;;;5066017;28;20025;-60
2022/07/08 04:13:54;;;;;;;1.90;0.57;;;14.30;89.60;;;;;;5067028;28;20503;-60
2022/07/08 04:16:19;;;;;;;3.20;0.90;;;14.30;89.50;;;;;;5065702;28;20584;-60
2022/07/08 04:18:45;;;;;;;1.75;0.68;;;14.30;89.50;;;;;;5068256;28;20028;-60
2022/07/08 04:21:11;;;;;;;2.70;0.65;;;14.40;89.50;;;;;;5065565;28;20025;-60
2022/07/08 04:23:58;;;;;;;4.50;0.70;;;14.30;89.40;;;;;;5067367;28;20020;-60
2022/07/08 04:26:28;;;;;;;3.53;0.82;;;14.40;89.60;;;;;;5066056;28;20040;-60
2022/07/08 04:28:53;;;;;;;3.30;0.70;;;14.40;89.70;;;;;;5066382;28;20028;-60
2022/07/08 04:31:19;;;;;;;1.95;0.70;;;14.40;89.70;;;;;;5065057;28;20047;-60
2022/07/08 04:33:44;;;;;;;2.80;0.75;;;14.40;89.80;;;;;;5066454;28;20028;-60
2022/07/08 04:36:10;;;;;;;3.60;0.88;;;14.40;89.80;;;;;;5067542;28;20025;-60
2022/07/08 04:38:35;;;;;;;2.47;0.90;;;14.40;89.90;;;;;;5067480;28;20051;-60
2022/07/08 04:41:01;;;;;;;3.15;0.98;;;14.40;89.90;;;;;;5064652;28;20043;-60
2022/07/08 04:43:26;;;;;;;3.83;0.93;;;14.50;90.00;;;;;;5065988;28;20436;-60
2022/07/08 04:45:52;;;;;;;3.22;0.80;;;14.50;90.00;;;;;;5067343;28;20039;-60
2022/07/08 04:48:17;;;;;;;5.43;1.00;;;14.50;90.00;;;;;;5066992;28;20017;-61
2022/07/08 04:50:43;;;;;;;5.82;1.55;;;14.50;90.00;;;;;;5078729;28;20024;-60
2022/07/08 04:53:08;;;;;;;4.95;0.95;;;14.50;90.10;;;;;;5066707;28;20028;-60
2022/07/08 04:55:34;;;;;;;5.63;1.20;;;14.50;90.10;;;;;;5067202;28;20020;-60
2022/07/08 04:58:02;;;;;;;3.67;1.00;;;14.50;90.10;;;;;;5067707;28;20086;-60
2022/07/08 05:00:29;;;;;;;2.40;1.00;;;14.60;90.20;;;;;;5065418;28;20040;-60
2022/07/08 05:02:55;;;;;;;5.80;1.42;;;14.60;90.30;;;;;;5066505;28;20020;-61
2022/07/08 05:05:21;;;;;;;2.95;1.27;;;14.60;90.30;;;;;;5064185;28;20492;-60
2022/07/08 05:07:50;;;;;;;5.20;1.20;;;14.60;90.30;;;;;;5066472;28;20028;-60
2022/07/08 05:10:16;;;;;;;6.13;2.05;;;14.60;90.40;;;;;;5060929;28;20021;-60
2022/07/08 05:12:42;;;;;;;5.95;1.60;;;14.70;90.50;;;;;;5064929;28;20060;-60
2022/07/08 05:15:08;;;;;;;6.85;2.20;;;14.70;90.70;;;;;;5060686;28;20452;-60
2022/07/08 05:17:34;;;;;;;4.82;1.48;;;14.70;90.80;;;;;;5070886;28;20150;-60
2022/07/08 05:19:59;;;;;;;5.05;1.90;;;14.70;90.80;;;;;;5071915;28;20111;-60
2022/07/08 05:22:25;;;;;;;8.05;1.38;;;14.70;90.80;;;;;;5074493;28;20019;-60
2022/07/08 05:24:50;;;;;;;4.03;1.80;;;14.70;90.90;;;;;;5074610;28;20034;-60
2022/07/08 05:27:16;;;;;;;5.85;1.52;;;14.70;91.00;;;;;;5075049;28;20021;-60
2022/07/08 05:29:41;;;;;;;5.13;2.13;;;14.80;91.00;;;;;;5068320;28;20032;-60
2022/07/08 05:32:23;;;;;;;7.60;2.00;;;14.80;91.10;;;;;;5068100;28;20043;-60
2022/07/08 05:35:29;;;;;;;4.25;1.50;;;14.80;91.20;;;;;;5088114;28;20081;-60
2022/07/08 05:37:55;;;;;;;5.20;1.73;;;14.90;91.30;;;;;;5067470;28;20044;-60
2022/07/08 05:40:20;;;;;;;6.65;1.50;;;14.90;91.40;;;;;;5071813;28;20388;-60
2022/07/08 05:42:46;;;;;;;5.40;1.20;;;14.90;91.50;;;;;;5068393;28;20033;-60
2022/07/08 05:45:13;;;;;;;6.63;2.10;;;14.90;91.50;;;;;;5071877;28;20028;-60
2022/07/08 05:48:18;;;;;;;;;;;;;;;;;;;;;
2022/07/08 06:01:47;;;;;;;3.50;1.35;;;15.10;91.60;;;;;;4865497;29;20117;-60
2022/07/08 06:04:13;;;;;;;3.85;1.23;;;15.10;91.80;;;;;;4888061;28;20513;-60
2022/07/08 06:06:38;;;;;;;3.75;1.15;;;15.20;91.80;;;;;;4979249;28;20030;-60
2022/07/08 06:09:04;;;;;;;5.13;1.55;;;15.20;91.70;;;;;;5010628;28;20064;-60
2022/07/08 06:11:30;;;;;;;5.07;1.15;;;15.30;91.90;;;;;;5071722;28;20085;-60
2022/07/08 06:13:55;;;;;;;5.97;2.25;;;15.30;91.90;;;;;;5065929;28;20029;-60
2022/07/08 06:16:21;;;;;;;5.75;1.23;;;15.40;91.90;;;;;;5067707;28;20028;-60
2022/07/08 06:18:47;;;;;;;6.30;1.17;;;15.40;91.90;;;;;;5064955;28;20075;-60
2022/07/08 06:21:13;;;;;;;7.80;1.05;;;15.50;91.90;;;;;;5073906;28;20396;-60
2022/07/08 06:26:56;;;;;;;6.45;1.08;;;15.60;91.90;;;;;;5012923;28;20105;-61
2022/07/08 06:29:22;;;;;;;3.75;0.80;;;15.60;92.00;;;;;;5049318;28;20104;-60
2022/07/08 06:31:48;;;;;;;7.30;0.98;;;15.70;92.00;;;;;;5064961;28;20033;-60
2022/07/08 06:34:13;;;;;;;3.65;0.70;;;15.80;91.90;;;;;;5067793;28;20404;-60
2022/07/08 06:36:39;;;;;;;2.47;0.60;;;15.80;91.80;;;;;;5062995;28;20024;-60
2022/07/08 06:45:17;;;;;;;4.68;0.75;;;16.20;91.80;;;;;;5027464;28;20059;-60
2022/07/08 06:54:35;;;;;;;5.82;0.73;;;16.60;91.40;;;;;;4966391;28;20137;-60
2022/07/08 06:57:02;;;;;;;4.60;0.60;;;16.70;91.30;;;;;;5043633;28;20037;-60
2022/07/08 06:59:28;;;;;;;3.75;0.85;;;16.70;91.10;;;;;;5053168;28;20108;-61
2022/07/08 07:01:54;;;;;;;5.05;1.00;;;16.80;91.00;;;;;;5067111;28;20162;-60
2022/07/08 07:04:19;;;;;;;8.60;0.60;;;16.90;90.90;;;;;;5071388;28;20478;-60
2022/07/08 07:06:45;;;;;;;3.85;0.68;;;17.00;90.80;;;;;;5058321;28;20522;-61
2022/07/08 07:09:11;;;;;;;3.83;0.70;;;17.10;90.80;;;;;;5061329;28;20020;-60
2022/07/08 07:11:38;;;;;;;4.60;0.70;;;17.20;90.70;;;;;;5058320;28;20086;-61
2022/07/08 07:14:26;;;;;;;;;;;;;;;;;;;;;
2022/07/08 07:16:52;;;;;;;3.88;1.00;;;17.50;90.40;;;;;;5059823;28;20025;-61
2022/07/08 07:19:26;;;;;;;2.67;0.70;;;17.60;90.30;;;;;;5059330;28;20103;-61
2022/07/08 07:22:05;;;;;;;2.78;0.40;;;17.70;90.10;;;;;;5057206;28;20083;-60
2022/07/08 07:24:31;;;;;;;2.75;0.60;;;17.70;90.00;;;;;;5082425;28;20047;-60
2022/07/08 07:26:56;;;;;;;3.80;0.70;;;17.80;89.70;;;;;;5065449;28;20233;-60
2022/07/08 07:29:22;;;;;;;4.13;0.85;;;17.90;89.00;;;;;;5060266;28;20036;-60
2022/07/08 07:34:48;;;;;;;4.97;0.70;;;18.00;88.30;;;;;;5061436;28;20032;-60
2022/07/08 07:44:25;;;;;;;4.63;1.75;;;18.00;87.90;;;;;;4924465;28;20543;-62
2022/07/08 07:50:30;;;;;;;5.22;0.75;;;18.10;87.90;;;;;;4906284;29;20092;-61
2022/07/08 07:52:55;;;;;;;4.95;1.27;;;18.10;88.20;;;;;;4962392;28;20035;-61
2022/07/08 07:55:21;;;;;;;5.18;1.02;;;18.20;88.00;;;;;;5041080;28;20029;-61
2022/07/08 07:57:48;;;;;;;4.05;0.82;;;18.20;87.80;;;;;;5070016;28;20031;-61
2022/07/08 08:00:15;;;;;;;6.63;1.13;;;18.20;87.90;;;;;;5067373;28;20103;-61
2022/07/08 08:02:41;;;;;;;4.93;1.17;;;18.30;87.70;;;;;;5063730;28;20044;-61
2022/07/08 08:05:08;;;;;;;4.75;1.00;;;18.30;87.70;;;;;;5070494;28;20017;-61
2022/07/08 08:07:34;;;;;;;4.45;0.88;;;18.40;87.50;;;;;;5055240;28;20020;-61
2022/07/08 08:10:01;;;;;;;3.53;0.80;;;18.40;87.30;;;;;;5050715;28;20029;-60
2022/07/08 08:12:27;;;;;;;5.20;0.90;;;18.50;87.20;;;;;;5062417;28;20016;-61
2022/07/08 08:14:52;;;;;;;3.35;0.98;;;18.60;86.60;;;;;;5056671;28;20484;-60
2022/07/08 08:17:18;;;;;;;5.70;0.80;;;18.60;86.10;;;;;;5051985;28;20025;-60
2022/07/08 08:19:44;;;;;;;2.80;0.70;;;18.60;85.60;;;;;;5052524;28;20024;-61
2022/07/08 08:22:09;;;;;;;3.08;0.70;;;18.70;85.70;;;;;;5060693;28;20027;-60
2022/07/08 08:24:35;;;;;;;4.53;0.90;;;18.80;85.40;;;;;;5064191;28;20370;-61
2022/07/08 08:27:00;;;;;;;5.47;1.02;;;18.80;85.40;;;;;;5072386;28;20078;-60
2022/07/08 08:29:26;;;;;;;5.38;0.85;;;18.90;85.50;;;;;;5066346;28;20063;-60
2022/07/08 08:31:51;;;;;;;3.55;0.60;;;19.00;85.50;;;;;;5051901;28;20017;-60
2022/07/08 08:34:58;;;;;;;;;;;;;;;;;;;;;
2022/07/08 08:40:58;;;;;;;3.17;0.80;;;19.10;83.90;;;;;;5035293;28;20113;-60
2022/07/08 08:43:23;;;;;;;2.50;0.55;;;19.20;83.50;;;;;;5062537;28;20147;-60
2022/07/08 08:45:51;;;;;;;6.47;1.00;;;19.40;83.10;;;;;;5056121;28;20479;-60
2022/07/08 08:48:19;;;;;;;2.78;0.65;;;19.60;82.60;;;;;;5060690;28;20021;-60
2022/07/08 08:51:03;;;;;;;4.85;0.75;;;19.80;82.00;;;;;;5059011;28;20108;-61
2022/07/08 08:53:41;;;;;;;5.93;0.93;;;20.00;81.50;;;;;;5042286;28;20063;-60
2022/07/08 08:56:11;;;;;;;2.58;0.60;;;20.20;80.70;;;;;;5059324;28;20151;-60
2022/07/08 08:58:47;;;;;;;2.92;0.50;;;20.40;80.20;;;;;;5066510;28;20477;-60
2022/07/08 09:01:17;;;;;;;3.80;0.80;;;20.60;79.90;;;;;;5063676;28;20198;-60
2022/07/08 09:03:43;;;;;;;2.85;0.80;;;20.70;78.70;;;;;;5061220;28;20025;-61
2022/07/08 09:06:12;;;;;;;2.90;0.70;;;20.80;78.00;;;;;;5063807;28;20484;-60
2022/07/08 09:08:38;;;;;;;3.70;0.60;;;20.90;77.30;;;;;;5062721;28;20352;-60
2022/07/08 09:11:05;;;;;;;3.47;0.70;;;21.00;77.20;;;;;;5063327;28;20025;-61
2022/07/08 09:13:31;;;;;;;3.22;0.55;;;21.10;76.60;;;;;;5060784;28;20029;-61
2022/07/08 09:15:58;;;;;;;3.00;0.50;;;21.30;76.20;;;;;;5054493;28;20025;-61
2022/07/08 09:18:42;;;;;;;4.28;1.30;;;21.40;76.20;;;;;;5056007;28;20171;-61
2022/07/08 09:21:08;;;;;;;5.10;0.77;;;21.60;76.10;;;;;;5056137;28;20118;-60
2022/07/08 09:23:35;;;;;;;2.90;0.90;;;21.60;76.10;;;;;;5055852;28;20033;-60
2022/07/08 09:26:03;;;;;;;2.95;0.70;;;21.60;76.00;;;;;;5056333;28;20128;-61
2022/07/08 09:28:36;;;;;;;2.83;0.60;;;21.80;76.20;;;;;;5056254;28;20032;-61
2022/07/08 09:31:07;;;;;;;5.20;0.85;;;21.80;76.00;;;;;;5048421;28;20071;-60
2022/07/08 09:33:33;;;;;;;3.65;0.70;;;21.90;75.80;;;;;;5062408;28;20116;-60
2022/07/08 09:36:00;;;;;;;2.33;0.60;;;22.00;75.50;;;;;;5065531;28;20036;-61
2022/07/08 09:38:51;;;;;;;;;;;;;;;;;;;;;
2022/07/08 09:41:17;;;;;;;3.17;0.70;;;22.10;74.70;;;;;;5060907;28;20035;-61
2022/07/08 09:43:44;;;;;;;3.35;0.73;;;22.20;74.80;;;;;;5063800;28;20028;-61
2022/07/08 09:46:09;;;;;;;2.75;0.60;;;22.40;74.50;;;;;;5055249;28;20108;-61
2022/07/08 09:48:35;;;;;;;2.03;0.80;;;22.60;73.60;;;;;;5061848;28;20429;-60
2022/07/08 09:51:21;;;;;;;5.18;0.82;;;22.70;73.10;;;;;;5059547;28;20456;-61
2022/07/08 09:53:46;;;;;;;3.15;0.82;;;22.80;72.40;;;;;;5074428;28;20025;-61
2022/07/08 09:56:12;;;;;;;4.65;0.93;;;22.80;72.50;;;;;;5055142;28;20571;-61
2022/07/08 09:59:10;;;;;;;;;;;;;;;;;;;;;
2022/07/08 10:01:36;;;;;;;4.32;0.80;;;22.90;72.00;;;;;;5064066;28;20048;-61
2022/07/08 10:04:02;;;;;;;4.72;0.90;;;22.90;71.90;;;;;;5045603;28;20119;-61
2022/07/08 10:06:28;;;;;;;4.30;0.60;;;22.90;71.50;;;;;;5073987;28;20415;-61
2022/07/08 10:08:54;;;;;;;3.40;0.90;;;23.20;71.20;;;;;;5063206;28;20032;-60
2022/07/08 10:11:20;;;;;;;3.58;1.08;;;23.20;70.60;;;;;;5059610;28;20033;-61
2022/07/08 10:13:58;;;;;;;;;;;;;;;;;;;;;
2022/07/08 10:16:24;;;;;;;4.85;0.80;;;23.20;70.20;;;;;;5056207;28;20016;-60
2022/07/08 10:18:53;;;;;;;5.20;1.05;;;23.30;69.60;;;;;;5075076;28;20485;-60
2022/07/08 10:21:22;;;;;;;4.13;0.70;;;23.50;69.50;;;;;;5063485;28;20082;-60
2022/07/08 10:23:51;;;;;;;3.17;0.60;;;23.70;68.90;;;;;;5064697;28;20024;-61
2022/07/08 10:26:34;;;;;;;2.93;0.77;;;23.80;68.60;;;;;;5064764;28;20027;-61
2022/07/08 10:29:08;;;;;;;1.42;0.60;;;24.00;68.10;;;;;;5074277;28;20074;-61
2022/07/08 10:31:47;;;;;;;2.63;0.70;;;24.20;67.70;;;;;;5072587;28;20112;-61
2022/07/08 10:34:17;;;;;;;5.50;0.90;;;24.50;67.60;;;;;;5060401;28;20099;-61
2022/07/08 10:36:53;;;;;;;4.07;0.80;;;24.50;66.80;;;;;;5073571;28;20119;-61
2022/07/08 10:39:36;;;;;;;3.85;1.15;;;24.80;66.60;;;;;;5068274;28;20105;-61
2022/07/08 10:42:04;;;;;;;3.17;1.13;;;24.90;66.30;;;;;;5052753;28;20126;-61
2022/07/08 10:44:45;;;;;;;4.82;0.80;;;25.00;65.40;;;;;;5073619;28;20035;-61
2022/07/08 10:47:12;;;;;;;2.70;1.38;;;25.10;64.80;;;;;;5066127;28;20021;-61
2022/07/08 10:49:42;;;;;;;3.90;0.63;;;25.10;64.90;;;;;;5070460;28;20476;-61
2022/07/08 10:52:08;;;;;;;3.88;0.80;;;25.20;64.80;;;;;;5070065;28;20075;-61
2022/07/08 10:54:37;;;;;;;2.13;0.50;;;25.40;64.80;;;;;;5060497;28;20378;-61
2022/07/08 10:57:27;;;;;;;3.65;0.70;;;25.40;64.60;;;;;;5068377;28;20430;-61
2022/07/08 11:00:24;;;;;;;2.63;0.73;;;25.70;63.40;;;;;;5068274;28;21803;-61
2022/07/08 11:02:50;;;;;;;2.60;0.80;;;25.80;63.50;;;;;;5063260;28;20066;-61
2022/07/08 11:05:39;;;;;;;3.38;0.65;;;26.00;63.30;;;;;;5069276;28;20028;-61
2022/07/08 11:08:20;;;;;;;4.68;1.13;;;26.10;62.50;;;;;;5066872;28;20111;-61
2022/07/08 11:10:46;;;;;;;1.92;0.60;;;26.20;62.50;;;;;;5068645;28;20092;-61
2022/07/08 11:13:37;;;;;;;2.47;0.70;;;26.10;62.30;;;;;;5057990;28;20033;-61
2022/07/08 11:16:03;;;;;;;5.70;1.17;;;26.10;62.30;;;;;;5059850;28;20451;-61
2022/07/08 11:18:29;;;;;;;3.67;0.95;;;26.00;61.60;;;;;;5053067;28;20021;-61
2022/07/08 11:21:01;;;;;;;2.35;0.50;;;25.90;62.00;;;;;;5054475;28;20029;-61
2022/07/08 11:23:32;;;;;;;4.05;0.90;;;26.00;62.20;;;;;;5055537;28;20104;-61
2022/07/08 11:26:20;;;;;;;;;;;;;;;;;;;;;
2022/07/08 11:28:45;;;;;;;3.87;0.77;;;25.90;61.70;;;;;;5055579;28;20032;-61
2022/07/08 11:31:28;;;;;;;5.07;0.60;;;25.70;62.40;;;;;;5073133;28;20107;-61
2022/07/08 11:33:53;;;;;;;3.22;1.10;;;25.80;62.30;;;;;;5068951;28;20063;-61
2022/07/08 11:36:20;;;;;;;5.60;1.33;;;25.80;62.20;;;;;;5054365;28;20388;-61
2022/07/08 11:39:05;;;;;;;4.30;1.10;;;25.90;62.30;;;;;;5058386;28;20025;-61
2022/07/08 11:41:39;;;;;;;1.92;1.02;;;25.90;62.00;;;;;;5072233;28;20120;-61
2022/07/08 11:44:09;;;;;;;3.45;0.90;;;25.90;62.30;;;;;;5061522;28;20066;-61
2022/07/08 11:46:44;;;;;;;3.75;0.68;;;26.00;62.00;;;;;;5055115;28;20025;-62
2022/07/08 11:49:10;;;;;;;4.70;1.00;;;26.10;61.70;;;;;;5059935;28;20078;-61
2022/07/08 11:51:58;;;;;;;3.05;1.20;;;26.10;61.90;;;;;;5061573;28;20032;-61
2022/07/08 11:54:25;;;;;;;3.53;0.90;;;26.20;61.70;;;;;;5055681;28;20083;-61
2022/07/08 11:57:45;;;;;;;2.10;0.70;;;26.40;61.40;;;;;;5059802;28;20339;-61
2022/07/08 12:00:11;;;;;;;3.80;0.88;;;26.60;61.10;;;;;;5070931;28;20029;-61
2022/07/08 12:02:37;;;;;;;5.95;1.02;;;26.50;61.00;;;;;;5052393;28;20094;-61
2022/07/08 12:05:08;;;;;;;3.60;1.17;;;26.60;61.10;;;;;;5059758;28;20024;-61
2022/07/08 12:07:54;;;;;;;3.85;1.23;;;26.70;60.70;;;;;;5061134;28;20017;-61
2022/07/08 12:10:22;;;;;;;5.53;1.00;;;26.90;60.50;;;;;;5054672;28;20143;-61
2022/07/08 12:12:55;;;;;;;3.47;0.73;;;27.10;60.30;;;;;;5055634;28;20021;-61
2022/07/08 12:15:21;;;;;;;2.10;0.88;;;27.30;60.10;;;;;;5056581;28;20025;-61
2022/07/08 12:17:57;;;;;;;4.75;1.23;;;27.30;60.00;;;;;;5052352;28;20028;-61
2022/07/08 12:20:37;;;;;;;2.95;0.70;;;27.40;59.50;;;;;;5056561;28;20036;-61
2022/07/08 12:23:24;;;;;;;4.03;1.00;;;27.50;59.40;;;;;;5059137;28;20280;-61
2022/07/08 12:25:52;;;;;;;2.15;0.70;;;27.50;59.40;;;;;;5080155;28;20051;-61
2022/07/08 12:28:24;;;;;;;2.45;0.70;;;27.50;59.60;;;;;;5069162;28;20052;-61
2022/07/08 12:30:49;;;;;;;2.97;0.80;;;27.50;59.80;;;;;;5062301;28;20035;-61
2022/07/08 12:33:32;;;;;;;2.70;0.90;;;27.60;59.70;;;;;;5066247;28;20103;-61
2022/07/08 12:35:57;;;;;;;3.45;1.45;;;27.90;59.20;;;;;;5059473;28;20103;-61
2022/07/08 12:38:24;;;;;;;4.10;0.85;;;28.00;59.00;;;;;;5067610;28;20455;-61
2022/07/08 12:40:50;;;;;;;3.10;0.73;;;28.10;58.80;;;;;;5035210;28;20120;-61
2022/07/08 12:43:26;;;;;;;2.75;1.10;;;28.40;58.70;;;;;;5054621;28;20107;-61
2022/07/08 12:45:52;;;;;;;2.15;0.70;;;28.50;57.70;;;;;;5068669;28;20148;-61
2022/07/08 12:48:18;;;;;;;3.75;1.02;;;28.50;57.70;;;;;;5071198;28;20511;-61
2022/07/08 12:50:43;;;;;;;3.15;0.90;;;28.40;57.40;;;;;;5056414;28;20489;-61
2022/07/08 12:53:09;;;;;;;3.67;0.80;;;28.30;57.30;;;;;;5062245;28;20039;-61
2022/07/08 12:55:53;;;;;;;2.28;0.65;;;28.20;57.60;;;;;;5052655;28;20017;-61
2022/07/08 12:58:24;;;;;;;2.35;0.70;;;28.20;57.70;;;;;;5053210;28;20116;-62
2022/07/08 13:00:52;;;;;;;2.95;0.80;;;28.30;57.70;;;;;;5067112;28;20032;-62
2022/07/08 13:03:18;;;;;;;2.33;0.70;;;28.40;57.70;;;;;;5066383;28;20046;-62
2022/07/08 13:05:44;;;;;;;3.55;0.90;;;28.60;58.10;;;;;;5071595;28;20029;-61
2022/07/08 13:08:09;;;;;;;4.10;0.88;;;28.70;57.20;;;;;;5068397;28;20021;-62
2022/07/08 13:10:35;;;;;;;2.47;0.77;;;28.80;57.00;;;;;;5062598;28;20032;-62
2022/07/08 13:13:06;;;;;;;3.10;1.23;;;28.70;56.80;;;;;;5050085;28;20029;-63
2022/07/08 13:15:47;;;;;;;1.80;0.80;;;28.70;56.70;;;;;;5054585;28;20370;-62
2022/07/08 13:18:12;;;;;;;3.28;0.60;;;28.70;56.60;;;;;;5049936;28;20033;-61
2022/07/08 13:20:38;;;;;;;2.83;1.00;;;28.70;56.70;;;;;;5049804;28;20035;-62
2022/07/08 13:23:03;;;;;;;1.65;0.63;;;28.70;56.50;;;;;;5049454;28;20025;-61
2022/07/08 13:25:29;;;;;;;3.80;1.30;;;28.70;56.50;;;;;;5050051;28;20053;-61
2022/07/08 13:28:07;;;;;;;4.75;0.70;;;28.80;56.30;;;;;;5055722;28;20495;-61
2022/07/08 13:30:33;;;;;;;3.92;0.90;;;28.90;56.70;;;;;;5068752;28;20036;-61
2022/07/08 13:32:58;;;;;;;2.67;1.00;;;28.90;55.70;;;;;;5051978;28;20063;-61
2022/07/08 13:35:31;;;;;;;5.20;1.00;;;29.10;55.70;;;;;;5051542;28;20021;-62
2022/07/08 13:37:57;;;;;;;1.92;0.90;;;29.10;55.20;;;;;;5067097;28;20486;-61
2022/07/08 13:40:22;;;;;;;2.10;0.70;;;29.00;55.20;;;;;;5052172;28;20047;-61
2022/07/08 13:42:48;;;;;;;2.53;0.75;;;29.00;55.30;;;;;;5051974;28;20063;-61
2022/07/08 13:45:13;;;;;;;1.70;0.68;;;28.90;55.40;;;;;;5057096;28;20496;-62
2022/07/08 13:47:39;;;;;;;3.70;0.80;;;28.90;55.20;;;;;;5055925;28;20112;-61
2022/07/08 13:50:05;;;;;;;2.38;0.65;;;28.90;54.90;;;;;;5057253;28;20020;-62